sensor_id;sensor_type;location;lat;lon;timestamp;temperature;humidity
23671;DHT22;12012;51.998;7.614;2023-05-21T00:06:33;14.80;1.00
23671;DHT22;12012;51.998;7.614;2023-05-21T00:09:03;14.80;1.00
23671;DHT22;12012;51.998;7.614;2023-05-21T00:11:29;14.70;1.00
23671;DHT22;12012;51.998;7.614;2023-05-21T00:13:55;15.10;1.00
23671;DHT22;12012;51.998;7.614;2023-05-21T00:16:21;15.00;1.00
23671;DHT22;12012;51.998;7.614;2023-05-21T00:18:47;15.20;1.00
23671;DHT22;12012;51.998;7.614;2023-05-21T00:21:16;14.60;1.00
23671;DHT22;12012;51.998;7.614;2023-05-21T00:23:45;14.60;1.00
23671;DHT22;12012;51.998;7.614;2023-05-21T00:26:12;14.60;1.00
23671;DHT22;12012;51.998;7.614;2023-05-21T00:28:37;14.50;1.00
23671;DHT22;12012;51.998;7.614;2023-05-21T00:31:03;14.70;1.00
23671;DHT22;12012;51.998;7.614;2023-05-21T00:33:28;14.50;1.00
23671;DHT22;12012;51.998;7.614;2023-05-21T00:35:55;14.90;1.00
23671;DHT22;12012;51.998;7.614;2023-05-21T00:38:22;14.30;79.70
23671;DHT22;12012;51.998;7.614;2023-05-21T00:40:48;14.40;1.00
23671;DHT22;12012;51.998;7.614;2023-05-21T00:45:41;14.10;99.90
23671;DHT22;12012;51.998;7.614;2023-05-21T00:48:11;13.90;99.90
23671;DHT22;12012;51.998;7.614;2023-05-21T00:50:37;14.10;99.90
23671;DHT22;12012;51.998;7.614;2023-05-21T00:53:06;14.30;99.90
23671;DHT22;12012;51.998;7.614;2023-05-21T00:55:38;14.20;99.90
23671;DHT22;12012;51.998;7.614;2023-05-21T01:00:34;14.10;99.90
23671;DHT22;12012;51.998;7.614;2023-05-21T01:03:00;14.00;1.00
23671;DHT22;12012;51.998;7.614;2023-05-21T01:05:29;14.10;99.90
23671;DHT22;12012;51.998;7.614;2023-05-21T01:07:55;14.00;99.90
23671;DHT22;12012;51.998;7.614;2023-05-21T01:10:23;14.10;97.00
23671;DHT22;12012;51.998;7.614;2023-05-21T01:12:49;14.00;99.90
23671;DHT22;12012;51.998;7.614;2023-05-21T01:20:10;13.90;1.00
23671;DHT22;12012;51.998;7.614;2023-05-21T01:22:55;13.90;99.90
23671;DHT22;12012;51.998;7.614;2023-05-21T01:25:22;14.10;1.00
23671;DHT22;12012;51.998;7.614;2023-05-21T01:30:14;13.90;81.70
23671;DHT22;12012;51.998;7.614;2023-05-21T01:33:01;13.70;1.00
23671;DHT22;12012;51.998;7.614;2023-05-21T01:35:31;13.70;1.00
23671;DHT22;12012;51.998;7.614;2023-05-21T01:38:16;13.90;3.60
23671;DHT22;12012;51.998;7.614;2023-05-21T01:41:02;13.90;92.70
23671;DHT22;12012;51.998;7.614;2023-05-21T01:43:31;13.70;99.90
23671;DHT22;12012;51.998;7.614;2023-05-21T01:45:58;14.60;1.00
23671;DHT22;12012;51.998;7.614;2023-05-21T01:48:27;13.70;99.90
23671;DHT22;12012;51.998;7.614;2023-05-21T01:50:54;13.70;1.00
23671;DHT22;12012;51.998;7.614;2023-05-21T01:53:22;14.60;99.90
23671;DHT22;12012;51.998;7.614;2023-05-21T01:55:48;13.80;99.90
23671;DHT22;12012;51.998;7.614;2023-05-21T01:58:14;13.80;99.90
23671;DHT22;12012;51.998;7.614;2023-05-21T02:00:43;13.70;99.90
23671;DHT22;12012;51.998;7.614;2023-05-21T02:03:12;14.00;1.00
23671;DHT22;12012;51.998;7.614;2023-05-21T02:05:39;13.70;99.90
23671;DHT22;12012;51.998;7.614;2023-05-21T02:08:05;13.60;40.30
23671;DHT22;12012;51.998;7.614;2023-05-21T02:12:58;13.60;99.90
23671;DHT22;12012;51.998;7.614;2023-05-21T02:15:24;13.60;99.90
23671;DHT22;12012;51.998;7.614;2023-05-21T02:17:50;13.60;99.90
23671;DHT22;12012;51.998;7.614;2023-05-21T02:20:16;13.40;1.00
23671;DHT22;12012;51.998;7.614;2023-05-21T02:22:46;13.50;99.90
23671;DHT22;12012;51.998;7.614;2023-05-21T02:25:13;13.60;99.90
23671;DHT22;12012;51.998;7.614;2023-05-21T02:27:40;13.60;99.90
23671;DHT22;12012;51.998;7.614;2023-05-21T02:30:10;13.60;99.90
23671;DHT22;12012;51.998;7.614;2023-05-21T02:32:37;13.60;42.30
23671;DHT22;12012;51.998;7.614;2023-05-21T02:35:04;13.40;1.00
23671;DHT22;12012;51.998;7.614;2023-05-21T02:37:30;14.10;99.90
23671;DHT22;12012;51.998;7.614;2023-05-21T02:39:59;13.50;1.00
23671;DHT22;12012;51.998;7.614;2023-05-21T02:44:52;13.40;1.00
23671;DHT22;12012;51.998;7.614;2023-05-21T02:47:18;13.50;1.00
23671;DHT22;12012;51.998;7.614;2023-05-21T02:52:11;13.40;1.00
23671;DHT22;12012;51.998;7.614;2023-05-21T02:54:36;13.50;1.00
23671;DHT22;12012;51.998;7.614;2023-05-21T02:57:02;13.40;1.00
23671;DHT22;12012;51.998;7.614;2023-05-21T02:59:28;13.50;1.00
23671;DHT22;12012;51.998;7.614;2023-05-21T03:04:19;13.50;99.90
23671;DHT22;12012;51.998;7.614;2023-05-21T03:06:46;13.30;99.90
23671;DHT22;12012;51.998;7.614;2023-05-21T03:11:38;13.40;1.00
23671;DHT22;12012;51.998;7.614;2023-05-21T03:14:04;13.30;1.00
23671;DHT22;12012;51.998;7.614;2023-05-21T03:16:30;13.20;1.00
23671;DHT22;12012;51.998;7.614;2023-05-21T03:18:59;13.10;1.00
23671;DHT22;12012;51.998;7.614;2023-05-21T03:21:25;13.30;1.00
23671;DHT22;12012;51.998;7.614;2023-05-21T03:26:23;13.50;1.00
23671;DHT22;12012;51.998;7.614;2023-05-21T03:28:49;13.50;99.90
23671;DHT22;12012;51.998;7.614;2023-05-21T03:31:15;13.30;99.90
23671;DHT22;12012;51.998;7.614;2023-05-21T03:33:40;13.30;99.90
23671;DHT22;12012;51.998;7.614;2023-05-21T03:36:06;13.30;99.90
23671;DHT22;12012;51.998;7.614;2023-05-21T03:38:32;13.30;99.90
23671;DHT22;12012;51.998;7.614;2023-05-21T03:40:57;13.30;99.90
23671;DHT22;12012;51.998;7.614;2023-05-21T03:43:23;13.50;54.70
23671;DHT22;12012;51.998;7.614;2023-05-21T03:45:48;13.20;99.90
23671;DHT22;12012;51.998;7.614;2023-05-21T03:48:14;13.20;1.00
23671;DHT22;12012;51.998;7.614;2023-05-21T03:50:40;13.10;99.90
23671;DHT22;12012;51.998;7.614;2023-05-21T03:53:05;13.10;23.80
23671;DHT22;12012;51.998;7.614;2023-05-21T03:55:31;13.20;99.90
23671;DHT22;12012;51.998;7.614;2023-05-21T03:57:56;13.10;1.00
23671;DHT22;12012;51.998;7.614;2023-05-21T04:00:22;13.10;99.90
23671;DHT22;12012;51.998;7.614;2023-05-21T04:05:13;13.10;47.90
23671;DHT22;12012;51.998;7.614;2023-05-21T04:07:39;13.20;1.00
23671;DHT22;12012;51.998;7.614;2023-05-21T04:10:05;13.20;26.70
23671;DHT22;12012;51.998;7.614;2023-05-21T04:12:31;13.20;99.90
23671;DHT22;12012;51.998;7.614;2023-05-21T04:14:56;13.00;99.90
23671;DHT22;12012;51.998;7.614;2023-05-21T04:17:22;13.20;99.90
23671;DHT22;12012;51.998;7.614;2023-05-21T04:19:47;13.30;99.90
23671;DHT22;12012;51.998;7.614;2023-05-21T04:24:39;13.20;99.90
23671;DHT22;12012;51.998;7.614;2023-05-21T04:27:05;13.30;47.50
23671;DHT22;12012;51.998;7.614;2023-05-21T04:29:31;13.30;1.00
23671;DHT22;12012;51.998;7.614;2023-05-21T04:31:56;13.30;99.90
23671;DHT22;12012;51.998;7.614;2023-05-21T04:34:22;13.40;57.00
23671;DHT22;12012;51.998;7.614;2023-05-21T04:36:47;13.40;99.90
23671;DHT22;12012;51.998;7.614;2023-05-21T04:39:14;13.50;99.90
23671;DHT22;12012;51.998;7.614;2023-05-21T04:41:40;13.50;99.90
23671;DHT22;12012;51.998;7.614;2023-05-21T04:44:06;13.60;99.90
23671;DHT22;12012;51.998;7.614;2023-05-21T04:46:32;13.70;99.90
23671;DHT22;12012;51.998;7.614;2023-05-21T04:49:02;13.70;99.90
23671;DHT22;12012;51.998;7.614;2023-05-21T04:51:28;13.80;27.60
23671;DHT22;12012;51.998;7.614;2023-05-21T04:53:54;13.90;99.90
23671;DHT22;12012;51.998;7.614;2023-05-21T04:56:19;13.90;99.90
23671;DHT22;12012;51.998;7.614;2023-05-21T04:58:54;14.00;99.90
23671;DHT22;12012;51.998;7.614;2023-05-21T05:01:20;14.00;99.90
23671;DHT22;12012;51.998;7.614;2023-05-21T05:03:51;14.10;99.90
23671;DHT22;12012;51.998;7.614;2023-05-21T05:06:17;14.10;99.90
23671;DHT22;12012;51.998;7.614;2023-05-21T05:08:43;14.20;99.90
23671;DHT22;12012;51.998;7.614;2023-05-21T05:11:08;14.30;99.90
23671;DHT22;12012;51.998;7.614;2023-05-21T05:13:34;14.30;99.90
23671;DHT22;12012;51.998;7.614;2023-05-21T05:16:00;14.30;99.90
23671;DHT22;12012;51.998;7.614;2023-05-21T05:18:26;14.40;99.90
23671;DHT22;12012;51.998;7.614;2023-05-21T05:20:51;14.50;67.80
23671;DHT22;12012;51.998;7.614;2023-05-21T05:23:17;14.50;59.90
23671;DHT22;12012;51.998;7.614;2023-05-21T05:25:43;14.60;1.00
23671;DHT22;12012;51.998;7.614;2023-05-21T05:28:08;14.60;89.30
23671;DHT22;12012;51.998;7.614;2023-05-21T05:30:34;14.70;1.00
23671;DHT22;12012;51.998;7.614;2023-05-21T05:33:00;14.80;1.00
23671;DHT22;12012;51.998;7.614;2023-05-21T05:35:26;14.80;1.00
23671;DHT22;12012;51.998;7.614;2023-05-21T05:37:51;14.90;1.00
23671;DHT22;12012;51.998;7.614;2023-05-21T05:40:17;14.90;1.00
23671;DHT22;12012;51.998;7.614;2023-05-21T05:42:43;15.00;1.00
23671;DHT22;12012;51.998;7.614;2023-05-21T05:45:09;15.00;99.90
23671;DHT22;12012;51.998;7.614;2023-05-21T05:47:35;15.10;99.90
23671;DHT22;12012;51.998;7.614;2023-05-21T05:50:01;15.20;99.90
23671;DHT22;12012;51.998;7.614;2023-05-21T05:52:26;15.20;99.90
23671;DHT22;12012;51.998;7.614;2023-05-21T05:54:52;15.30;99.90
23671;DHT22;12012;51.998;7.614;2023-05-21T05:57:17;15.30;99.90
23671;DHT22;12012;51.998;7.614;2023-05-21T05:59:43;15.40;99.90
23671;DHT22;12012;51.998;7.614;2023-05-21T06:02:08;15.40;99.90
23671;DHT22;12012;51.998;7.614;2023-05-21T06:04:34;15.50;99.90
23671;DHT22;12012;51.998;7.614;2023-05-21T06:06:59;15.60;99.90
23671;DHT22;12012;51.998;7.614;2023-05-21T06:09:25;15.70;99.90
23671;DHT22;12012;51.998;7.614;2023-05-21T06:11:50;15.70;91.00
23671;DHT22;12012;51.998;7.614;2023-05-21T06:14:16;15.00;28.90
23671;DHT22;12012;51.998;7.614;2023-05-21T06:16:42;15.90;6.90
23671;DHT22;12012;51.998;7.614;2023-05-21T06:19:07;15.90;1.00
23671;DHT22;12012;51.998;7.614;2023-05-21T06:21:33;16.00;1.00
23671;DHT22;12012;51.998;7.614;2023-05-21T06:23:58;16.00;1.00
23671;DHT22;12012;51.998;7.614;2023-05-21T06:26:24;16.10;1.00
23671;DHT22;12012;51.998;7.614;2023-05-21T06:28:50;16.10;1.00
23671;DHT22;12012;51.998;7.614;2023-05-21T06:31:16;16.20;1.00
23671;DHT22;12012;51.998;7.614;2023-05-21T06:33:42;16.10;1.00
23671;DHT22;12012;51.998;7.614;2023-05-21T06:36:07;16.20;1.00
23671;DHT22;12012;51.998;7.614;2023-05-21T06:38:33;16.30;1.00
23671;DHT22;12012;51.998;7.614;2023-05-21T06:40:58;16.30;99.90
23671;DHT22;12012;51.998;7.614;2023-05-21T06:43:24;16.30;99.90
23671;DHT22;12012;51.998;7.614;2023-05-21T06:45:50;16.30;99.90
23671;DHT22;12012;51.998;7.614;2023-05-21T06:48:15;16.40;99.90
23671;DHT22;12012;51.998;7.614;2023-05-21T06:50:42;16.40;99.90
23671;DHT22;12012;51.998;7.614;2023-05-21T06:53:08;16.40;99.90
23671;DHT22;12012;51.998;7.614;2023-05-21T06:55:33;16.30;99.90
23671;DHT22;12012;51.998;7.614;2023-05-21T06:57:59;16.40;99.90
23671;DHT22;12012;51.998;7.614;2023-05-21T07:00:25;16.60;99.90
23671;DHT22;12012;51.998;7.614;2023-05-21T07:02:50;16.50;99.90
23671;DHT22;12012;51.998;7.614;2023-05-21T07:05:16;16.50;99.90
23671;DHT22;12012;51.998;7.614;2023-05-21T07:07:42;16.60;99.90
23671;DHT22;12012;51.998;7.614;2023-05-21T07:10:08;16.70;99.90
23671;DHT22;12012;51.998;7.614;2023-05-21T07:12:33;16.80;99.90
23671;DHT22;12012;51.998;7.614;2023-05-21T07:14:59;16.90;99.90
23671;DHT22;12012;51.998;7.614;2023-05-21T07:17:25;17.00;99.90
23671;DHT22;12012;51.998;7.614;2023-05-21T07:19:50;17.20;99.90
23671;DHT22;12012;51.998;7.614;2023-05-21T07:22:16;17.30;99.90
23671;DHT22;12012;51.998;7.614;2023-05-21T07:24:41;17.50;99.90
23671;DHT22;12012;51.998;7.614;2023-05-21T07:27:07;17.50;76.70
23671;DHT22;12012;51.998;7.614;2023-05-21T07:29:33;17.60;36.80
23671;DHT22;12012;51.998;7.614;2023-05-21T07:31:58;17.70;1.00
23671;DHT22;12012;51.998;7.614;2023-05-21T07:34:24;17.80;1.00
23671;DHT22;12012;51.998;7.614;2023-05-21T07:36:50;17.90;1.00
23671;DHT22;12012;51.998;7.614;2023-05-21T07:39:16;18.00;1.00
23671;DHT22;12012;51.998;7.614;2023-05-21T07:41:42;18.10;1.00
23671;DHT22;12012;51.998;7.614;2023-05-21T07:44:07;18.10;1.00
23671;DHT22;12012;51.998;7.614;2023-05-21T07:46:33;18.20;1.00
23671;DHT22;12012;51.998;7.614;2023-05-21T07:48:59;18.30;1.00
23671;DHT22;12012;51.998;7.614;2023-05-21T07:51:25;18.40;1.00
23671;DHT22;12012;51.998;7.614;2023-05-21T07:53:51;18.50;1.00
23671;DHT22;12012;51.998;7.614;2023-05-21T07:56:16;18.00;1.00
23671;DHT22;12012;51.998;7.614;2023-05-21T07:58:42;18.80;1.00
23671;DHT22;12012;51.998;7.614;2023-05-21T08:01:10;19.00;99.90
23671;DHT22;12012;51.998;7.614;2023-05-21T08:03:36;19.20;99.90
23671;DHT22;12012;51.998;7.614;2023-05-21T08:06:02;19.30;99.90
23671;DHT22;12012;51.998;7.614;2023-05-21T08:08:28;19.50;99.90
23671;DHT22;12012;51.998;7.614;2023-05-21T08:10:53;19.70;99.90
23671;DHT22;12012;51.998;7.614;2023-05-21T08:13:19;19.80;99.90
23671;DHT22;12012;51.998;7.614;2023-05-21T08:15:45;20.00;99.90
23671;DHT22;12012;51.998;7.614;2023-05-21T08:18:11;20.20;99.90
23671;DHT22;12012;51.998;7.614;2023-05-21T08:20:36;20.40;99.90
23671;DHT22;12012;51.998;7.614;2023-05-21T08:23:02;20.60;99.90
23671;DHT22;12012;51.998;7.614;2023-05-21T08:25:28;20.90;99.90
23671;DHT22;12012;51.998;7.614;2023-05-21T08:27:54;21.00;99.90
23671;DHT22;12012;51.998;7.614;2023-05-21T08:30:20;21.40;99.90
23671;DHT22;12012;51.998;7.614;2023-05-21T08:32:46;21.70;99.90
23671;DHT22;12012;51.998;7.614;2023-05-21T08:35:12;22.00;99.90
23671;DHT22;12012;51.998;7.614;2023-05-21T08:37:37;22.30;99.90
23671;DHT22;12012;51.998;7.614;2023-05-21T08:40:04;22.40;99.90
23671;DHT22;12012;51.998;7.614;2023-05-21T08:42:43;22.50;99.90
23671;DHT22;12012;51.998;7.614;2023-05-21T08:45:13;22.70;90.60
23671;DHT22;12012;51.998;7.614;2023-05-21T08:47:43;22.80;75.20
23671;DHT22;12012;51.998;7.614;2023-05-21T08:50:13;23.00;62.70
23671;DHT22;12012;51.998;7.614;2023-05-21T08:52:40;23.10;52.30
23671;DHT22;12012;51.998;7.614;2023-05-21T08:55:07;23.20;43.90
23671;DHT22;12012;51.998;7.614;2023-05-21T08:57:33;23.40;36.20
23671;DHT22;12012;51.998;7.614;2023-05-21T08:59:59;23.50;30.20
23671;DHT22;12012;51.998;7.614;2023-05-21T09:02:26;23.50;27.70
23671;DHT22;12012;51.998;7.614;2023-05-21T09:04:52;23.60;21.70
23671;DHT22;12012;51.998;7.614;2023-05-21T09:07:26;23.50;15.50
23671;DHT22;12012;51.998;7.614;2023-05-21T09:09:59;23.60;13.10
23671;DHT22;12012;51.998;7.614;2023-05-21T09:12:27;23.70;11.70
23671;DHT22;12012;51.998;7.614;2023-05-21T09:14:53;23.90;9.30
23671;DHT22;12012;51.998;7.614;2023-05-21T09:17:20;24.00;7.70
23671;DHT22;12012;51.998;7.614;2023-05-21T09:22:36;24.10;1.00
23671;DHT22;12012;51.998;7.614;2023-05-21T09:25:05;24.10;1.00
23671;DHT22;12012;51.998;7.614;2023-05-21T09:27:34;24.10;1.00
23671;DHT22;12012;51.998;7.614;2023-05-21T09:30:07;25.00;1.00
23671;DHT22;12012;51.998;7.614;2023-05-21T09:32:33;24.00;1.00
23671;DHT22;12012;51.998;7.614;2023-05-21T09:35:11;24.00;1.00
23671;DHT22;12012;51.998;7.614;2023-05-21T09:37:41;24.00;1.00
23671;DHT22;12012;51.998;7.614;2023-05-21T09:40:14;24.00;1.00
23671;DHT22;12012;51.998;7.614;2023-05-21T09:43:00;24.10;1.00
23671;DHT22;12012;51.998;7.614;2023-05-21T09:45:27;24.20;1.00
23671;DHT22;12012;51.998;7.614;2023-05-21T09:47:54;24.20;1.00
23671;DHT22;12012;51.998;7.614;2023-05-21T09:50:25;24.30;1.00
23671;DHT22;12012;51.998;7.614;2023-05-21T09:52:52;24.40;1.00
23671;DHT22;12012;51.998;7.614;2023-05-21T09:55:21;24.40;1.00
23671;DHT22;12012;51.998;7.614;2023-05-21T09:57:48;24.40;1.00
23671;DHT22;12012;51.998;7.614;2023-05-21T10:00:17;24.60;1.00
23671;DHT22;12012;51.998;7.614;2023-05-21T10:02:44;24.70;1.00
23671;DHT22;12012;51.998;7.614;2023-05-21T10:05:13;25.10;1.00
23671;DHT22;12012;51.998;7.614;2023-05-21T10:07:44;25.30;1.00
23671;DHT22;12012;51.998;7.614;2023-05-21T10:10:13;25.60;1.00
23671;DHT22;12012;51.998;7.614;2023-05-21T10:12:43;25.70;1.00
23671;DHT22;12012;51.998;7.614;2023-05-21T10:15:13;25.70;1.00
23671;DHT22;12012;51.998;7.614;2023-05-21T10:17:40;25.80;1.00
23671;DHT22;12012;51.998;7.614;2023-05-21T10:20:11;25.80;1.00
23671;DHT22;12012;51.998;7.614;2023-05-21T10:22:38;25.80;1.00
23671;DHT22;12012;51.998;7.614;2023-05-21T10:25:06;25.80;1.00
23671;DHT22;12012;51.998;7.614;2023-05-21T10:27:32;25.80;1.00
23671;DHT22;12012;51.998;7.614;2023-05-21T10:29:59;25.90;1.00
23671;DHT22;12012;51.998;7.614;2023-05-21T10:32:27;25.90;1.00
23671;DHT22;12012;51.998;7.614;2023-05-21T10:34:54;25.90;1.00
23671;DHT22;12012;51.998;7.614;2023-05-21T10:37:24;26.10;1.00
23671;DHT22;12012;51.998;7.614;2023-05-21T10:39:54;26.20;1.00
23671;DHT22;12012;51.998;7.614;2023-05-21T10:42:47;26.30;1.00
23671;DHT22;12012;51.998;7.614;2023-05-21T10:45:22;26.60;1.00
23671;DHT22;12012;51.998;7.614;2023-05-21T10:56:24;26.90;1.00
23671;DHT22;12012;51.998;7.614;2023-05-21T10:59:06;26.90;1.00
23671;DHT22;12012;51.998;7.614;2023-05-21T11:01:36;27.00;1.00
23671;DHT22;12012;51.998;7.614;2023-05-21T11:04:05;27.20;1.00
23671;DHT22;12012;51.998;7.614;2023-05-21T11:06:31;27.50;1.00
23671;DHT22;12012;51.998;7.614;2023-05-21T11:09:12;27.80;1.00
23671;DHT22;12012;51.998;7.614;2023-05-21T11:11:42;28.00;1.00
23671;DHT22;12012;51.998;7.614;2023-05-21T11:14:27;28.00;1.00
23671;DHT22;12012;51.998;7.614;2023-05-21T11:16:53;28.00;1.00
23671;DHT22;12012;51.998;7.614;2023-05-21T11:19:19;28.00;1.00
23671;DHT22;12012;51.998;7.614;2023-05-21T11:21:54;28.10;1.00
23671;DHT22;12012;51.998;7.614;2023-05-21T11:24:19;28.10;1.00
23671;DHT22;12012;51.998;7.614;2023-05-21T11:29:17;28.30;1.00
23671;DHT22;12012;51.998;7.614;2023-05-21T11:31:47;28.30;1.00
23671;DHT22;12012;51.998;7.614;2023-05-21T11:34:14;28.40;1.00
23671;DHT22;12012;51.998;7.614;2023-05-21T11:36:46;28.30;1.00
23671;DHT22;12012;51.998;7.614;2023-05-21T11:39:16;28.20;1.00
23671;DHT22;12012;51.998;7.614;2023-05-21T11:41:58;28.20;1.00
23671;DHT22;12012;51.998;7.614;2023-05-21T11:47:07;28.10;1.00
23671;DHT22;12012;51.998;7.614;2023-05-21T11:49:33;28.10;1.00
23671;DHT22;12012;51.998;7.614;2023-05-21T11:52:00;28.10;1.00
23671;DHT22;12012;51.998;7.614;2023-05-21T11:54:26;28.10;1.00
23671;DHT22;12012;51.998;7.614;2023-05-21T11:56:55;28.00;1.00
23671;DHT22;12012;51.998;7.614;2023-05-21T11:59:21;28.00;1.00
23671;DHT22;12012;51.998;7.614;2023-05-21T12:01:46;28.10;1.00
23671;DHT22;12012;51.998;7.614;2023-05-21T12:04:12;28.10;1.00
23671;DHT22;12012;51.998;7.614;2023-05-21T12:06:38;28.20;1.00
23671;DHT22;12012;51.998;7.614;2023-05-21T12:09:10;28.30;1.00
23671;DHT22;12012;51.998;7.614;2023-05-21T12:11:40;28.50;1.00
23671;DHT22;12012;51.998;7.614;2023-05-21T12:14:06;28.60;1.00
23671;DHT22;12012;51.998;7.614;2023-05-21T12:16:33;28.80;1.00
23671;DHT22;12012;51.998;7.614;2023-05-21T12:18:59;28.90;1.00
23671;DHT22;12012;51.998;7.614;2023-05-21T12:21:27;29.10;1.00
23671;DHT22;12012;51.998;7.614;2023-05-21T12:23:54;29.30;1.00
23671;DHT22;12012;51.998;7.614;2023-05-21T12:26:19;29.60;1.00
23671;DHT22;12012;51.998;7.614;2023-05-21T12:28:46;29.90;1.00
23671;DHT22;12012;51.998;7.614;2023-05-21T12:31:14;30.00;1.00
23671;DHT22;12012;51.998;7.614;2023-05-21T12:33:43;30.00;1.00
23671;DHT22;12012;51.998;7.614;2023-05-21T12:36:27;30.00;1.00
23671;DHT22;12012;51.998;7.614;2023-05-21T12:38:53;29.90;1.00
23671;DHT22;12012;51.998;7.614;2023-05-21T12:41:21;29.90;1.00
23671;DHT22;12012;51.998;7.614;2023-05-21T12:43:47;30.00;1.00
23671;DHT22;12012;51.998;7.614;2023-05-21T12:46:15;30.00;1.00
23671;DHT22;12012;51.998;7.614;2023-05-21T12:48:53;30.10;1.00
23671;DHT22;12012;51.998;7.614;2023-05-21T12:51:21;30.30;1.00
23671;DHT22;12012;51.998;7.614;2023-05-21T12:53:47;30.30;1.00
23671;DHT22;12012;51.998;7.614;2023-05-21T12:56:14;30.30;1.00
23671;DHT22;12012;51.998;7.614;2023-05-21T12:58:40;30.40;1.00
23671;DHT22;12012;51.998;7.614;2023-05-21T13:01:10;30.40;1.00
23671;DHT22;12012;51.998;7.614;2023-05-21T13:03:37;30.40;1.00
23671;DHT22;12012;51.998;7.614;2023-05-21T13:06:05;30.40;1.00
23671;DHT22;12012;51.998;7.614;2023-05-21T13:08:31;30.40;1.00
23671;DHT22;12012;51.998;7.614;2023-05-21T13:11:01;30.30;1.00
23671;DHT22;12012;51.998;7.614;2023-05-21T13:13:28;30.20;1.00
23671;DHT22;12012;51.998;7.614;2023-05-21T13:15:53;30.10;1.00
23671;DHT22;12012;51.998;7.614;2023-05-21T13:18:22;30.00;1.00
23671;DHT22;12012;51.998;7.614;2023-05-21T13:20:48;30.00;1.00
23671;DHT22;12012;51.998;7.614;2023-05-21T13:23:14;29.90;1.00
23671;DHT22;12012;51.998;7.614;2023-05-21T13:25:40;29.90;1.00
23671;DHT22;12012;51.998;7.614;2023-05-21T13:28:06;29.90;1.00
23671;DHT22;12012;51.998;7.614;2023-05-21T13:30:35;29.90;1.00
23671;DHT22;12012;51.998;7.614;2023-05-21T13:33:01;30.00;1.00
23671;DHT22;12012;51.998;7.614;2023-05-21T13:35:26;30.20;1.00
23671;DHT22;12012;51.998;7.614;2023-05-21T13:37:52;30.50;1.00
23671;DHT22;12012;51.998;7.614;2023-05-21T13:40:17;30.90;1.00
23671;DHT22;12012;51.998;7.614;2023-05-21T13:42:44;31.20;1.00
23671;DHT22;12012;51.998;7.614;2023-05-21T13:45:12;31.60;1.00
23671;DHT22;12012;51.998;7.614;2023-05-21T13:47:38;32.00;1.00
23671;DHT22;12012;51.998;7.614;2023-05-21T13:50:04;31.90;1.00
23671;DHT22;12012;51.998;7.614;2023-05-21T13:52:30;31.80;1.00
23671;DHT22;12012;51.998;7.614;2023-05-21T13:54:56;31.70;1.00
23671;DHT22;12012;51.998;7.614;2023-05-21T13:57:21;31.70;1.00
23671;DHT22;12012;51.998;7.614;2023-05-21T13:59:47;31.90;1.00
23671;DHT22;12012;51.998;7.614;2023-05-21T14:02:14;32.10;1.00
23671;DHT22;12012;51.998;7.614;2023-05-21T14:04:40;32.60;1.00
23671;DHT22;12012;51.998;7.614;2023-05-21T14:07:06;33.30;1.00
23671;DHT22;12012;51.998;7.614;2023-05-21T14:09:31;33.70;1.00
23671;DHT22;12012;51.998;7.614;2023-05-21T14:11:57;34.00;1.00
23671;DHT22;12012;51.998;7.614;2023-05-21T14:14:23;34.00;1.00
23671;DHT22;12012;51.998;7.614;2023-05-21T14:16:49;33.80;1.00
23671;DHT22;12012;51.998;7.614;2023-05-21T14:19:15;33.50;1.00
23671;DHT22;12012;51.998;7.614;2023-05-21T14:21:41;33.30;1.00
23671;DHT22;12012;51.998;7.614;2023-05-21T14:24:07;33.10;1.00
23671;DHT22;12012;51.998;7.614;2023-05-21T14:26:33;32.80;1.00
23671;DHT22;12012;51.998;7.614;2023-05-21T14:28:58;32.30;1.00
23671;DHT22;12012;51.998;7.614;2023-05-21T14:31:24;31.90;1.00
23671;DHT22;12012;51.998;7.614;2023-05-21T14:33:50;31.60;1.00
23671;DHT22;12012;51.998;7.614;2023-05-21T14:36:15;31.20;1.00
23671;DHT22;12012;51.998;7.614;2023-05-21T14:38:41;30.80;1.00
23671;DHT22;12012;51.998;7.614;2023-05-21T14:41:07;30.40;1.00
23671;DHT22;12012;51.998;7.614;2023-05-21T14:43:34;29.90;1.00
23671;DHT22;12012;51.998;7.614;2023-05-21T14:45:59;29.70;1.00
23671;DHT22;12012;51.998;7.614;2023-05-21T14:48:25;29.50;1.00
23671;DHT22;12012;51.998;7.614;2023-05-21T14:50:51;29.60;1.00
23671;DHT22;12012;51.998;7.614;2023-05-21T14:53:17;29.80;1.00
23671;DHT22;12012;51.998;7.614;2023-05-21T14:55:43;29.80;1.00
23671;DHT22;12012;51.998;7.614;2023-05-21T14:58:09;29.70;1.00
23671;DHT22;12012;51.998;7.614;2023-05-21T15:00:36;29.60;1.00
23671;DHT22;12012;51.998;7.614;2023-05-21T15:03:02;29.50;1.00
23671;DHT22;12012;51.998;7.614;2023-05-21T15:05:29;29.40;1.00
23671;DHT22;12012;51.998;7.614;2023-05-21T15:07:55;29.50;1.00
23671;DHT22;12012;51.998;7.614;2023-05-21T15:10:25;29.50;1.00
23671;DHT22;12012;51.998;7.614;2023-05-21T15:12:50;29.60;1.00
23671;DHT22;12012;51.998;7.614;2023-05-21T15:15:16;29.60;1.00
23671;DHT22;12012;51.998;7.614;2023-05-21T15:17:42;29.60;1.00
23671;DHT22;12012;51.998;7.614;2023-05-21T15:20:08;29.50;1.00
23671;DHT22;12012;51.998;7.614;2023-05-21T15:22:34;29.40;1.00
23671;DHT22;12012;51.998;7.614;2023-05-21T15:25:00;29.20;1.00
23671;DHT22;12012;51.998;7.614;2023-05-21T15:27:25;29.20;1.00
23671;DHT22;12012;51.998;7.614;2023-05-21T15:29:51;29.10;1.00
23671;DHT22;12012;51.998;7.614;2023-05-21T15:32:17;29.10;1.00
23671;DHT22;12012;51.998;7.614;2023-05-21T15:34:45;29.10;1.00
23671;DHT22;12012;51.998;7.614;2023-05-21T15:37:11;29.00;1.00
23671;DHT22;12012;51.998;7.614;2023-05-21T15:39:42;28.90;1.00
23671;DHT22;12012;51.998;7.614;2023-05-21T15:42:09;28.80;1.00
23671;DHT22;12012;51.998;7.614;2023-05-21T15:44:36;28.70;1.00
23671;DHT22;12012;51.998;7.614;2023-05-21T15:47:02;28.60;1.00
23671;DHT22;12012;51.998;7.614;2023-05-21T15:49:27;28.40;1.00
23671;DHT22;12012;51.998;7.614;2023-05-21T15:51:53;28.40;1.00
23671;DHT22;12012;51.998;7.614;2023-05-21T15:54:21;28.40;1.00
23671;DHT22;12012;51.998;7.614;2023-05-21T15:56:49;28.40;1.00
23671;DHT22;12012;51.998;7.614;2023-05-21T15:59:14;28.40;1.00
23671;DHT22;12012;51.998;7.614;2023-05-21T16:01:40;28.50;1.00
23671;DHT22;12012;51.998;7.614;2023-05-21T16:04:06;28.50;1.00
23671;DHT22;12012;51.998;7.614;2023-05-21T16:06:32;28.40;1.00
23671;DHT22;12012;51.998;7.614;2023-05-21T16:08:58;28.30;1.00
23671;DHT22;12012;51.998;7.614;2023-05-21T16:11:24;28.10;1.00
23671;DHT22;12012;51.998;7.614;2023-05-21T16:13:51;28.10;1.00
23671;DHT22;12012;51.998;7.614;2023-05-21T16:16:17;28.00;1.00
23671;DHT22;12012;51.998;7.614;2023-05-21T16:18:42;28.00;1.00
23671;DHT22;12012;51.998;7.614;2023-05-21T16:21:08;28.10;1.00
23671;DHT22;12012;51.998;7.614;2023-05-21T16:23:34;28.20;1.00
23671;DHT22;12012;51.998;7.614;2023-05-21T16:26:03;28.40;1.00
23671;DHT22;12012;51.998;7.614;2023-05-21T16:28:29;28.40;1.00
23671;DHT22;12012;51.998;7.614;2023-05-21T16:30:54;28.30;1.00
23671;DHT22;12012;51.998;7.614;2023-05-21T16:33:20;28.20;1.00